Time;durP1;ratioP1;P1;durP2;ratioP2;P2;SDS_P1;SDS_P2;PMS_P1;PMS_P2;Temp;Humidity;BMP_temperature;BMP_pressure;BME280_temperature;BME280_humidity;BME280_pressure;Samples;Min_cycle;Max_cycle;Signal;HPM_P1;HPM_P2
2021/12/15 00:01:07;;;;;;;21.95;11.50;;;;;;;5.14;65.93;101415.50;5054006;28;20048;-79
2021/12/15 00:03:33;;;;;;;23.92;12.48;;;;;;;5.33;66.36;101414.59;5054569;28;20102;-79
2021/12/15 00:06:02;;;;;;;21.00;10.80;;;;;;;5.29;65.39;101421.00;5054522;28;20063;-78
2021/12/15 00:08:28;;;;;;;26.42;13.27;;;;;;;5.40;65.36;101437.38;5038344;28;20026;-79
2021/12/15 00:10:53;;;;;;;22.10;13.23;;;;;;;5.43;65.35;101437.22;5042640;28;20469;-78
2021/12/15 00:13:20;;;;;;;21.52;12.63;;;;;;;5.43;64.78;101434.56;5054950;28;20035;-78
2021/12/15 00:15:47;;;;;;;26.33;11.93;;;;;;;5.45;64.24;101418.47;5053907;28;20029;-78
2021/12/15 00:18:14;;;;;;;17.50;10.45;;;;;;;5.38;64.46;101417.06;5054287;28;20059;-78
2021/12/15 00:20:40;;;;;;;19.90;11.48;;;;;;;5.39;65.05;101430.31;5053735;28;20056;-78
2021/12/15 00:23:06;;;;;;;19.23;12.00;;;;;;;5.42;64.90;101430.16;5053508;28;20082;-78
2021/12/15 00:25:36;;;;;;;16.42;10.43;;;;;;;5.46;64.87;101426.41;5054393;28;20506;-78
2021/12/15 00:28:03;;;;;;;19.80;11.35;;;;;;;5.41;64.91;101407.06;5053958;28;20461;-80
2021/12/15 00:30:30;;;;;;;22.88;12.48;;;;;;;5.48;65.13;101411.19;5054063;28;20029;-80
2021/12/15 00:32:55;;;;;;;27.02;13.00;;;;;;;5.53;65.37;101394.97;5053870;28;20021;-80
2021/12/15 00:35:21;;;;;;;31.10;12.52;;;;;;;5.50;65.16;101385.28;5035838;28;20029;-80
2021/12/15 00:37:48;;;;;;;27.13;13.65;;;;;;;5.49;64.75;101396.06;5053854;28;20025;-80
2021/12/15 00:40:17;;;;;;;25.42;13.50;;;;;;;5.39;64.56;101395.63;5053409;28;20442;-80
2021/12/15 00:42:43;;;;;;;24.92;14.00;;;;;;;5.35;65.73;101412.69;5049904;28;20029;-78
2021/12/15 00:45:09;;;;;;;27.90;14.50;;;;;;;5.38;65.47;101412.56;5033332;28;20501;-78
2021/12/15 00:47:35;;;;;;;28.27;15.10;;;;;;;5.46;65.45;101415.75;5034186;28;20456;-78
2021/12/15 00:50:06;;;;;;;25.63;14.52;;;;;;;5.36;65.13;101401.09;5033736;28;20087;-78
2021/12/15 00:52:33;;;;;;;26.08;15.18;;;;;;;5.26;65.05;101385.63;5033406;28;20029;-78
2021/12/15 00:54:59;;;;;;;26.17;14.45;;;;;;;5.22;64.83;101395.56;5033918;28;20033;-78
2021/12/15 00:57:25;;;;;;;24.00;14.35;;;;;;;5.19;65.74;101401.03;5033509;28;20025;-78
2021/12/15 00:59:50;;;;;;;28.52;13.85;;;;;;;5.15;65.77;101403.91;5015592;28;20037;-78
2021/12/15 01:02:16;;;;;;;27.63;14.25;;;;;;;5.06;65.97;101383.88;5033272;28;20022;-78
2021/12/15 01:04:42;;;;;;;26.35;14.30;;;;;;;5.12;65.98;101390.72;5034038;28;20100;-79
2021/12/15 01:07:09;;;;;;;24.58;13.35;;;;;;;5.07;66.08;101396.28;5033295;28;20571;-78
2021/12/15 01:09:45;;;;;;;26.40;14.05;;;;;;;5.11;66.10;101400.53;5033572;28;20021;-78
2021/12/15 01:20:38;;;;;;;27.67;13.63;;;;;;;5.23;66.51;101375.94;5032689;28;20053;-78
2021/12/15 01:23:07;;;;;;;22.55;12.75;;;;;;;5.30;66.18;101372.06;5033478;28;20380;-78
2021/12/15 01:25:51;;;;;;;20.73;12.18;;;;;;;5.39;65.81;101365.41;5033957;28;20063;-78
2021/12/15 01:28:17;;;;;;;21.02;12.57;;;;;;;5.27;65.99;101356.19;5034777;28;20037;-79
2021/12/15 01:30:46;;;;;;;22.77;13.30;;;;;;;5.45;66.37;101384.66;5037074;28;20549;-78
2021/12/15 01:33:13;;;;;;;24.88;12.90;;;;;;;5.49;65.66;101362.25;5040921;28;20064;-79
2021/12/15 01:35:41;;;;;;;30.73;12.95;;;;;;;5.53;65.27;101367.44;5040993;28;20021;-79
2021/12/15 01:38:07;;;;;;;23.75;13.85;;;;;;;5.50;64.71;101361.28;5033688;28;20057;-79
2021/12/15 01:40:37;;;;;;;22.23;13.98;;;;;;;5.30;64.99;101366.72;5033211;28;20336;-78
2021/12/15 01:43:14;;;;;;;25.80;13.57;;;;;;;5.25;65.66;101358.09;5032716;28;20021;-78
2021/12/15 01:48:25;;;;;;;22.60;13.55;;;;;;;5.22;65.95;101368.91;5033444;28;20033;-78
2021/12/15 01:50:51;;;;;;;29.33;14.30;;;;;;;5.28;66.07;101365.94;5033027;28;20025;-78
2021/12/15 01:53:17;;;;;;;24.17;14.10;;;;;;;5.34;65.85;101365.66;5033149;28;20022;-77
2021/12/15 01:55:43;;;;;;;23.67;13.98;;;;;;;5.25;65.43;101349.22;5032984;28;20021;-78
2021/12/15 01:58:09;;;;;;;25.08;13.18;;;;;;;5.20;65.87;101349.41;5033080;28;20032;-78
2021/12/15 02:01:02;;;;;;;29.25;13.73;;;;;;;5.23;65.91;101343.94;5033087;28;20021;-78
2021/12/15 02:03:28;;;;;;;25.17;13.73;;;;;;;5.13;65.93;101336.47;5032902;28;20025;-78
2021/12/15 02:05:54;;;;;;;25.30;14.88;;;;;;;5.08;66.39;101350.00;5036181;28;20036;-78
2021/12/15 02:08:21;;;;;;;23.33;13.00;;;;;;;5.11;66.78;101335.66;5037152;28;20089;-78
2021/12/15 02:10:48;;;;;;;22.27;14.05;;;;;;;5.10;66.36;101337.50;5038016;28;20542;-78
2021/12/15 02:13:17;;;;;;;29.63;14.13;;;;;;;5.03;66.70;101335.16;5036116;28;20525;-78
2021/12/15 02:15:49;;;;;;;29.40;14.70;;;;;;;5.03;66.96;101341.38;5036626;28;20067;-80
2021/12/15 02:18:18;;;;;;;24.80;13.38;;;;;;;5.07;66.96;101326.97;5036528;28;20108;-78
2021/12/15 02:20:51;;;;;;;30.73;13.80;;;;;;;5.12;66.91;101327.59;5035926;28;20053;-78
2021/12/15 02:23:20;;;;;;;22.45;13.30;;;;;;;5.05;67.15;101333.28;5035858;28;20029;-78
2021/12/15 02:25:46;;;;;;;18.60;12.15;;;;;;;5.08;66.89;101334.00;5036233;28;20029;-78
2021/12/15 02:28:12;;;;;;;25.23;13.40;;;;;;;5.06;66.86;101325.22;5035657;28;20052;-78
2021/12/15 02:30:56;;;;;;;24.50;14.45;;;;;;;5.04;66.99;101327.13;5035757;28;20037;-78
2021/12/15 02:33:46;;;;;;;25.48;13.57;;;;;;;5.02;67.14;101334.31;5036598;28;20021;-78
2021/12/15 02:38:57;;;;;;;24.08;12.05;;;;;;;5.04;67.05;101321.78;5036538;28;20032;-79
2021/12/15 02:41:24;;;;;;;25.73;13.38;;;;;;;4.98;67.36;101322.06;5036185;28;20021;-79
2021/12/15 02:44:00;;;;;;;24.35;12.48;;;;;;;5.05;67.57;101320.81;5035502;28;20025;-78
2021/12/15 02:46:30;;;;;;;22.70;12.85;;;;;;;5.01;67.79;101305.06;5035509;28;20037;-79
2021/12/15 02:48:56;;;;;;;22.75;12.93;;;;;;;5.07;67.42;101316.31;5034974;28;20539;-79
2021/12/15 02:51:23;;;;;;;24.77;12.57;;;;;;;5.02;67.50;101307.66;5035601;28;20072;-79
2021/12/15 02:53:49;;;;;;;22.73;11.82;;;;;;;4.89;67.83;101317.19;5035533;28;20017;-79
2021/12/15 02:56:15;;;;;;;20.35;12.20;;;;;;;4.97;68.11;101304.34;5035398;28;20083;-79
2021/12/15 02:58:50;;;;;;;23.55;12.48;;;;;;;4.99;68.03;101302.47;5035322;28;20410;-78
2021/12/15 03:01:25;;;;;;;24.17;12.00;;;;;;;4.99;68.04;101307.78;5017929;28;20391;-79
2021/12/15 03:04:29;;;;;;;23.35;12.43;;;;;;;4.93;68.06;101303.63;5035767;28;20025;-78
2021/12/15 03:06:54;;;;;;;20.20;12.25;;;;;;;4.87;68.19;101297.72;5032177;28;20043;-78
2021/12/15 03:17:23;;;;;;;23.77;11.65;;;;;;;4.81;68.77;101308.66;5034452;28;20671;-77
2021/12/15 03:19:51;;;;;;;20.83;10.88;;;;;;;4.88;68.77;101310.09;5035109;28;20141;-80
2021/12/15 03:22:16;;;;;;;23.20;10.57;;;;;;;4.90;68.79;101318.88;5035495;28;20032;-78
2021/12/15 03:24:42;;;;;;;19.25;11.13;;;;;;;4.87;68.74;101309.25;5035076;28;20029;-80
2021/12/15 03:27:14;;;;;;;17.65;10.15;;;;;;;4.84;69.13;101293.41;5035230;28;20017;-79
2021/12/15 03:37:40;;;;;;;15.55;8.98;;;;;;;4.86;68.72;101291.50;5054329;28;20024;-81
2021/12/15 03:40:10;;;;;;;19.90;9.32;;;;;;;4.97;68.54;101304.34;5054538;28;20419;-77
2021/12/15 03:42:43;;;;;;;20.48;9.55;;;;;;;4.93;68.77;101297.41;5034227;28;20466;-78
2021/12/15 03:45:13;;;;;;;20.77;10.85;;;;;;;4.93;68.80;101300.09;5034301;28;20041;-78
2021/12/15 03:47:42;;;;;;;19.13;10.63;;;;;;;4.95;69.01;101311.56;5037070;28;20048;-79
2021/12/15 03:50:10;;;;;;;18.00;10.65;;;;;;;5.03;69.08;101320.03;5035966;28;20075;-79
2021/12/15 03:52:35;;;;;;;15.68;9.52;;;;;;;4.97;68.67;101317.66;5034356;28;20020;-78
2021/12/15 03:55:02;;;;;;;18.85;10.10;;;;;;;4.97;68.38;101319.47;5034031;28;20025;-79
2021/12/15 03:57:28;;;;;;;18.13;9.55;;;;;;;4.88;68.84;101310.97;5033966;28;20543;-79
2021/12/15 03:59:56;;;;;;;19.02;10.93;;;;;;;4.91;68.75;101315.28;5034578;28;20060;-77
2021/12/15 04:02:22;;;;;;;24.05;13.43;;;;;;;4.96;69.43;101318.59;5034281;28;20456;-80
2021/12/15 04:04:50;;;;;;;18.08;10.45;;;;;;;4.99;69.16;101310.44;5032810;28;20053;-77
2021/12/15 04:07:17;;;;;;;18.58;12.25;;;;;;;4.96;68.77;101313.25;5032470;28;20013;-78
2021/12/15 04:09:45;;;;;;;26.45;15.68;;;;;;;4.98;68.94;101316.75;5033917;28;20036;-78
2021/12/15 04:12:12;;;;;;;15.00;8.85;;;;;;;5.03;68.99;101314.72;5034555;28;20048;-78
2021/12/15 04:14:54;;;;;;;25.40;14.82;;;;;;;5.05;69.04;101326.16;5034962;28;20060;-79
2021/12/15 04:17:27;;;;;;;21.38;12.18;;;;;;;5.02;68.97;101323.63;5041124;28;20162;-77
2021/12/15 04:19:56;;;;;;;17.30;10.68;;;;;;;5.10;69.18;101340.16;5054400;28;20108;-78
2021/12/15 04:22:24;;;;;;;26.30;9.52;;;;;;;5.26;69.56;101342.97;5054724;28;20024;-77
2021/12/15 04:24:50;;;;;;;16.33;10.43;;;;;;;5.24;68.35;101340.34;5053903;28;20025;-80
2021/12/15 04:27:18;;;;;;;16.98;10.25;;;;;;;5.29;68.47;101345.47;5053672;28;20017;-77
2021/12/15 04:29:46;;;;;;;15.30;10.10;;;;;;;5.41;67.97;101335.06;5052790;28;20071;-78
2021/12/15 04:32:22;;;;;;;17.83;10.45;;;;;;;5.50;67.91;101342.59;5054036;28;20525;-78
2021/12/15 04:34:48;;;;;;;16.58;10.07;;;;;;;5.50;67.78;101329.25;5053070;28;20025;-80
2021/12/15 04:37:13;;;;;;;16.90;9.27;;;;;;;5.55;68.08;101328.19;5036082;28;20110;-79
2021/12/15 04:39:39;;;;;;;16.88;8.88;;;;;;;5.60;67.84;101337.69;5053838;28;20025;-78
2021/12/15 04:42:06;;;;;;;16.88;10.00;;;;;;;5.65;67.33;101356.16;5053406;28;20509;-78
2021/12/15 04:44:34;;;;;;;16.05;9.77;;;;;;;5.65;67.42;101350.81;5053375;28;20332;-79
2021/12/15 04:47:07;;;;;;;13.93;9.38;;;;;;;5.55;67.47;101336.19;5038464;28;20021;-79
2021/12/15 04:49:38;;;;;;;16.48;11.43;;;;;;;5.69;67.94;101353.22;5032244;28;20025;-79
2021/12/15 04:52:05;;;;;;;17.00;10.05;;;;;;;5.73;67.23;101348.63;5033732;28;20115;-79
2021/12/15 04:54:32;;;;;;;19.10;11.23;;;;;;;5.70;67.05;101351.44;5033623;28;20037;-79
2021/12/15 04:56:57;;;;;;;21.00;11.68;;;;;;;5.63;67.42;101361.53;5015869;28;20099;-79
2021/12/15 04:59:23;;;;;;;17.83;10.82;;;;;;;5.63;67.29;101356.22;5034476;28;20104;-79
2021/12/15 05:01:49;;;;;;;18.00;10.20;;;;;;;5.50;67.37;101347.94;5033287;28;20029;-79
2021/12/15 05:04:15;;;;;;;18.48;9.70;;;;;;;5.53;67.86;101359.41;5033468;28;20038;-79
2021/12/15 05:06:41;;;;;;;28.95;11.63;;;;;;;5.52;68.03;101345.22;5037930;28;20037;-78
2021/12/15 05:09:08;;;;;;;17.17;10.15;;;;;;;5.70;67.78;101364.78;5032552;28;20030;-76
2021/12/15 05:11:33;;;;;;;16.40;10.10;;;;;;;5.61;67.62;101359.91;5013601;28;20444;-78
2021/12/15 05:14:00;;;;;;;19.70;10.05;;;;;;;5.69;67.86;101357.72;5031339;28;20056;-79
2021/12/15 05:16:25;;;;;;;24.55;11.27;;;;;;;5.75;67.44;101357.44;5030986;28;20029;-78
2021/12/15 05:18:51;;;;;;;29.15;10.20;;;;;;;5.84;67.41;101368.47;5030707;28;20704;-77
2021/12/15 05:21:17;;;;;;;25.35;10.02;;;;;;;5.84;67.20;101379.16;5031373;28;20028;-80
2021/12/15 05:23:45;;;;;;;14.32;9.57;;;;;;;5.78;66.96;101374.13;5032400;28;20411;-78
2021/12/15 05:26:11;;;;;;;32.53;18.10;;;;;;;5.84;66.99;101371.16;5035646;28;20072;-79
2021/12/15 05:28:38;;;;;;;30.25;10.55;;;;;;;5.86;67.26;101365.78;5033917;28;20042;-78
2021/12/15 05:31:03;;;;;;;19.23;10.15;;;;;;;5.83;67.05;101371.25;5015009;28;20032;-79
2021/12/15 05:33:29;;;;;;;35.42;9.85;;;;;;;5.92;67.54;101362.81;5032514;28;20081;-78
2021/12/15 05:35:56;;;;;;;26.23;14.40;;;;;;;5.92;66.58;101360.13;5032530;28;20020;-78
2021/12/15 05:38:26;;;;;;;27.67;10.52;;;;;;;5.82;66.40;101369.50;5032841;28;20021;-78
2021/12/15 05:40:53;;;;;;;17.98;9.02;;;;;;;5.78;66.64;101367.94;5018472;28;20039;-78
2021/12/15 05:43:18;;;;;;;16.55;9.00;;;;;;;5.77;66.98;101369.75;5019474;28;20037;-78
2021/12/15 05:45:45;;;;;;;15.50;8.80;;;;;;;5.75;67.10;101378.78;5037082;28;20453;-77
2021/12/15 05:48:13;;;;;;;14.43;8.45;;;;;;;5.73;66.90;101364.63;5037476;28;20035;-81
2021/12/15 05:50:39;;;;;;;18.17;10.13;;;;;;;5.71;67.10;101364.72;5037031;28;20032;-78
2021/12/15 05:53:05;;;;;;;22.60;13.02;;;;;;;5.67;67.17;101360.47;5036220;28;20391;-78
2021/12/15 05:55:31;;;;;;;25.48;10.40;;;;;;;5.69;67.17;101369.25;5036726;28;20113;-78
2021/12/15 05:57:57;;;;;;;23.08;10.90;;;;;;;5.72;67.47;101373.59;5036255;28;20423;-78
2021/12/15 06:00:28;;;;;;;24.02;11.38;;;;;;;5.72;67.24;101368.25;5036750;28;20022;-78
2021/12/15 06:02:58;;;;;;;19.73;11.65;;;;;;;5.57;67.43;101371.66;5036952;28;20049;-79
2021/12/15 06:05:24;;;;;;;19.13;9.68;;;;;;;5.49;67.53;101366.69;5044516;28;20494;-80
2021/12/15 06:07:50;;;;;;;25.98;10.07;;;;;;;5.46;67.94;101365.06;5048942;28;20021;-80
2021/12/15 06:10:21;;;;;;;17.13;10.95;;;;;;;5.49;68.30;101372.91;5056117;28;20025;-80
2021/12/15 06:12:50;;;;;;;20.60;11.57;;;;;;;5.43;68.29;101383.88;5055598;28;20399;-80
2021/12/15 06:15:21;;;;;;;13.80;9.57;;;;;;;5.43;68.22;101386.53;5056434;28;20032;-78
2021/12/15 06:17:51;;;;;;;18.08;10.63;;;;;;;5.37;68.76;101388.63;5049653;28;20047;-77
2021/12/15 06:20:17;;;;;;;36.38;12.20;;;;;;;5.35;68.79;101388.69;5056247;28;20037;-80
2021/12/15 06:22:45;;;;;;;19.30;10.50;;;;;;;5.44;68.60;101390.09;5056496;28;20219;-78
2021/12/15 06:25:11;;;;;;;17.75;10.68;;;;;;;5.48;68.62;101392.50;5056361;28;20029;-78
2021/12/15 06:27:37;;;;;;;24.88;11.63;;;;;;;5.42;68.63;101387.47;5055403;28;20021;-78
2021/12/15 06:30:03;;;;;;;18.42;10.68;;;;;;;5.49;68.33;101399.59;5054823;28;20045;-79
2021/12/15 06:32:29;;;;;;;27.38;10.30;;;;;;;5.48;68.51;101389.84;5055175;28;20115;-78
2021/12/15 06:34:55;;;;;;;22.33;12.35;;;;;;;5.49;68.77;101388.91;5055528;28;20038;-78
2021/12/15 06:37:20;;;;;;;23.92;12.93;;;;;;;5.50;68.59;101390.63;5055339;28;20029;-78
2021/12/15 06:39:46;;;;;;;19.90;10.20;;;;;;;5.53;68.58;101410.13;5053887;28;20426;-78
2021/12/15 06:42:11;;;;;;;14.52;9.55;;;;;;;5.49;68.08;101391.59;5055086;28;20108;-78
2021/12/15 06:44:38;;;;;;;19.98;9.82;;;;;;;5.46;68.33;101388.19;5057306;28;20025;-78
2021/12/15 07:00:44;;;;;;;14.15;8.80;;;;;;;5.41;68.16;101415.06;5032267;28;20032;-77
2021/12/15 07:03:10;;;;;;;15.88;9.43;;;;;;;5.48;68.60;101418.31;5054703;28;20029;-77
2021/12/15 07:05:36;;;;;;;15.55;9.60;;;;;;;5.52;68.30;101405.69;5059948;28;20021;-78
2021/12/15 07:08:04;;;;;;;15.77;9.85;;;;;;;5.52;67.58;101413.72;5064091;28;20021;-78
2021/12/15 07:10:32;;;;;;;16.48;9.43;;;;;;;5.46;67.93;101405.06;5055076;28;20028;-81
2021/12/15 07:12:59;;;;;;;16.85;9.35;;;;;;;5.42;68.06;101410.59;5054903;28;20063;-77
2021/12/15 07:15:26;;;;;;;16.50;10.00;;;;;;;5.44;68.15;101411.44;5053227;28;20043;-79
2021/12/15 07:17:57;;;;;;;16.20;9.57;;;;;;;5.48;67.99;101411.19;5034219;28;20033;-79
2021/12/15 07:23:11;;;;;;;17.88;10.43;;;;;;;5.49;68.06;101399.59;5035118;28;20040;-78
2021/12/15 07:25:38;;;;;;;13.52;8.68;;;;;;;5.56;68.01;101401.97;5016754;28;20044;-78
2021/12/15 07:28:04;;;;;;;18.77;10.02;;;;;;;5.60;68.32;101412.38;5034183;28;20053;-78
2021/12/15 07:30:31;;;;;;;16.30;9.82;;;;;;;5.67;68.20;101410.31;5034906;28;20506;-77
2021/12/15 07:32:57;;;;;;;22.80;13.55;;;;;;;5.74;68.04;101422.41;5034950;28;20029;-78
2021/12/15 07:35:23;;;;;;;16.75;11.13;;;;;;;5.75;67.64;101424.16;5034195;28;20025;-78
2021/12/15 07:37:49;;;;;;;21.17;8.27;;;;;;;5.79;67.02;101423.03;5033746;28;20034;-77
2021/12/15 07:40:21;;;;;;;13.80;9.10;;;;;;;5.80;67.18;101432.78;5034062;28;20036;-77
2021/12/15 07:43:24;;;;;;;18.95;10.00;;;;;;;5.87;67.43;101439.59;5032695;28;20143;-78
2021/12/15 07:45:52;;;;;;;19.23;9.90;;;;;;;5.77;67.01;101435.59;5036797;28;20494;-77
2021/12/15 07:48:21;;;;;;;13.60;7.82;;;;;;;5.75;67.35;101438.34;5041995;28;20379;-78
2021/12/15 07:50:52;;;;;;;13.85;9.02;;;;;;;5.87;67.16;101447.59;5035948;28;20486;-78
2021/12/15 07:53:19;;;;;;;15.23;8.48;;;;;;;5.97;66.64;101438.19;5033834;28;20040;-78
2021/12/15 07:55:45;;;;;;;21.13;8.30;;;;;;;6.01;66.73;101434.44;5035431;28;20036;-78
2021/12/15 07:58:11;;;;;;;15.30;8.63;;;;;;;5.99;66.44;101444.34;5034066;28;20026;-79
2021/12/15 08:00:39;;;;;;;13.93;7.90;;;;;;;6.03;66.45;101437.88;5033893;28;20417;-78
2021/12/15 08:06:28;;;;;;;19.10;8.98;;;;;;;6.03;66.41;101440.56;5048247;28;20379;-78
2021/12/15 08:08:54;;;;;;;23.85;8.90;;;;;;;6.04;66.82;101431.63;5034561;28;20502;-79
2021/12/15 08:11:20;;;;;;;14.15;7.72;;;;;;;5.96;66.46;101439.16;5047401;28;20079;-79
2021/12/15 08:13:49;;;;;;;28.35;10.98;;;;;;;5.96;66.78;101441.81;5052996;28;20131;-78
2021/12/15 08:16:16;;;;;;;16.17;10.13;;;;;;;6.01;66.72;101440.66;5044558;28;20053;-77
2021/12/15 08:18:42;;;;;;;22.55;9.88;;;;;;;6.01;66.74;101431.75;5033022;28;20039;-77
2021/12/15 08:21:09;;;;;;;20.85;10.57;;;;;;;6.09;66.71;101431.38;5032787;28;20104;-78
2021/12/15 08:23:35;;;;;;;27.58;11.07;;;;;;;6.10;66.92;101425.97;5033614;28;20025;-79
2021/12/15 08:26:01;;;;;;;18.73;10.13;;;;;;;6.05;66.48;101414.66;5033528;28;20021;-77
2021/12/15 08:28:27;;;;;;;22.58;11.55;;;;;;;6.14;66.97;101427.56;5032777;28;20048;-77
2021/12/15 08:30:53;;;;;;;16.10;9.63;;;;;;;6.15;66.60;101431.94;5014958;28;20042;-77
2021/12/15 08:33:22;;;;;;;16.92;8.52;;;;;;;6.07;66.43;101423.44;5032449;28;20048;-76
2021/12/15 08:36:14;;;;;;;20.67;9.50;;;;;;;6.00;66.92;101424.69;5033080;28;20021;-78
2021/12/15 08:38:43;;;;;;;21.25;9.85;;;;;;;5.90;67.07;101415.44;5031588;28;20431;-78
2021/12/15 08:41:18;;;;;;;28.75;12.18;;;;;;;5.83;67.68;101435.31;5031854;28;20029;-76
2021/12/15 08:43:44;;;;;;;17.33;10.00;;;;;;;5.83;67.55;101413.97;5031978;28;20029;-77
2021/12/15 08:46:14;;;;;;;17.80;9.48;;;;;;;5.76;67.97;101410.72;5031592;28;20025;-77
2021/12/15 08:48:42;;;;;;;19.17;11.50;;;;;;;5.87;67.43;101426.25;5032671;28;20021;-78
2021/12/15 08:51:11;;;;;;;21.58;12.43;;;;;;;5.78;67.71;101413.31;5032501;28;20195;-77
2021/12/15 08:53:39;;;;;;;26.23;14.70;;;;;;;5.88;67.79;101433.31;5032799;28;20096;-77
2021/12/15 08:56:05;;;;;;;24.55;14.50;;;;;;;6.01;67.30;101423.75;5032346;28;20028;-78
2021/12/15 08:58:30;;;;;;;25.30;13.95;;;;;;;5.99;67.25;101414.97;5030895;28;20013;-78
2021/12/15 09:00:58;;;;;;;30.25;14.15;;;;;;;5.99;67.01;101420.31;5031426;28;20036;-76
2021/12/15 09:03:25;;;;;;;25.17;13.38;;;;;;;5.94;67.08;101408.97;5032519;28;20025;-77
2021/12/15 09:05:53;;;;;;;28.45;14.13;;;;;;;6.01;67.35;101411.28;5033605;28;20026;-76
2021/12/15 09:08:22;;;;;;;17.63;11.30;;;;;;;6.06;67.10;101416.38;5032170;28;20049;-77
2021/12/15 09:10:48;;;;;;;24.83;14.30;;;;;;;6.13;67.25;101398.22;5031644;28;20048;-77
2021/12/15 09:13:14;;;;;;;19.90;11.23;;;;;;;6.23;66.91;101400.38;5014747;28;20471;-76
2021/12/15 09:15:41;;;;;;;26.40;12.13;;;;;;;6.33;67.38;101417.63;5021112;28;20387;-76
2021/12/15 09:18:08;;;;;;;21.40;11.90;;;;;;;6.34;66.96;101400.66;5038376;28;20537;-78
2021/12/15 09:20:36;;;;;;;25.42;13.13;;;;;;;6.41;66.71;101391.41;5038605;28;20403;-76
2021/12/15 09:23:06;;;;;;;15.00;8.27;;;;;;;6.39;65.68;101382.59;5039200;28;20060;-76
2021/12/15 09:25:32;;;;;;;17.40;9.68;;;;;;;6.43;65.74;101385.97;5038827;28;20056;-78
2021/12/15 09:27:58;;;;;;;21.23;8.93;;;;;;;6.38;65.60;101380.00;5038925;28;20021;-78
2021/12/15 09:30:26;;;;;;;31.63;13.38;;;;;;;6.40;65.64;101383.47;5038971;28;20093;-77
2021/12/15 09:32:53;;;;;;;36.42;13.60;;;;;;;6.41;65.71;101380.72;5038729;28;20032;-77
2021/12/15 09:35:21;;;;;;;25.90;12.20;;;;;;;6.44;65.52;101379.69;5039262;28;20031;-78
2021/12/15 09:37:47;;;;;;;21.40;9.98;;;;;;;6.54;65.52;101371.09;5040162;28;20439;-78
2021/12/15 09:40:15;;;;;;;12.52;8.63;;;;;;;6.62;66.04;101372.50;5038144;28;20064;-78
2021/12/15 09:42:41;;;;;;;22.83;12.20;;;;;;;6.64;65.19;101373.28;5038654;28;20029;-79
2021/12/15 10:05:05;;;;;;;13.18;9.07;;;;;;;6.10;66.80;101375.22;5038748;28;20084;-78
2021/12/15 10:17:28;;;;;;;30.67;11.57;;;;;;;6.04;67.88;101364.84;5039302;28;20176;-76
2021/12/15 10:18:08;;;;;;;19.00;10.77;;;;;;;6.12;66.80;101367.97;5039364;28;20041;-76
2021/12/15 10:20:38;;;;;;;22.75;12.13;;;;;;;6.15;67.19;101362.50;5039594;28;20090;-76
2021/12/15 10:23:11;;;;;;;23.85;12.27;;;;;;;6.25;67.37;101366.41;5039821;28;20383;-79
2021/12/15 10:25:49;;;;;;;23.73;11.82;;;;;;;6.36;66.72;101373.91;5038930;28;20476;-76
2021/12/15 10:28:25;;;;;;;21.55;13.50;;;;;;;6.34;66.39;101368.63;5038017;28;20022;-77
2021/12/15 10:30:54;;;;;;;20.63;12.13;;;;;;;6.45;66.35;101370.75;5036215;28;20512;-77
2021/12/15 10:33:27;;;;;;;16.08;10.00;;;;;;;6.44;65.77;101375.22;5035330;28;20032;-77
2021/12/15 10:36:13;;;;;;;16.48;10.23;;;;;;;6.33;65.69;101352.69;5038208;28;20120;-77
2021/12/15 10:38:42;;;;;;;15.40;10.20;;;;;;;6.28;66.20;101358.25;5039349;28;20021;-77
2021/12/15 10:41:36;;;;;;;19.90;12.93;;;;;;;6.15;66.17;101351.81;5041797;28;20048;-77
2021/12/15 10:44:06;;;;;;;17.92;10.32;;;;;;;5.96;66.95;101362.56;5042213;28;20045;-76
2021/12/15 10:46:35;;;;;;;22.88;13.05;;;;;;;5.94;67.41;101347.56;5045073;28;20037;-78
2021/12/15 10:49:24;;;;;;;19.27;12.05;;;;;;;5.92;67.37;101352.13;5043424;28;20025;-77
2021/12/15 10:52:03;;;;;;;16.90;9.82;;;;;;;5.88;67.72;101338.06;5026466;28;20055;-78
2021/12/15 10:54:33;;;;;;;18.00;10.45;;;;;;;5.85;67.58;101348.91;5039526;28;20025;-77
2021/12/15 10:57:00;;;;;;;18.55;10.70;;;;;;;5.84;67.67;101330.28;5038496;28;20037;-77
2021/12/15 10:59:29;;;;;;;20.83;11.38;;;;;;;5.80;67.91;101334.03;5036513;28;20021;-78
2021/12/15 11:02:07;;;;;;;22.35;10.43;;;;;;;5.76;68.07;101330.66;5041548;28;20102;-78
2021/12/15 11:04:39;;;;;;;19.60;10.93;;;;;;;5.78;68.24;101327.91;5037805;28;20491;-78
2021/12/15 11:07:28;;;;;;;20.27;11.90;;;;;;;5.72;68.21;101326.41;5035217;28;20021;-78
2021/12/15 11:10:25;;;;;;;16.63;9.80;;;;;;;5.76;68.29;101329.78;5034960;28;20036;-79
2021/12/15 11:13:00;;;;;;;17.80;10.55;;;;;;;5.79;68.22;101313.59;5031469;28;20064;-78
2021/12/15 11:15:36;;;;;;;30.65;9.93;;;;;;;5.79;68.16;101317.16;5036867;28;20375;-78
2021/12/15 11:18:17;;;;;;;18.92;11.07;;;;;;;5.87;68.18;101314.97;5038604;28;20025;-80
2021/12/15 11:20:50;;;;;;;16.15;10.13;;;;;;;5.88;67.85;101314.03;5038001;28;20569;-79
2021/12/15 11:23:26;;;;;;;15.50;9.60;;;;;;;6.01;67.58;101311.59;5042377;28;20029;-77
2021/12/15 11:25:54;;;;;;;17.45;10.50;;;;;;;6.08;67.44;101307.69;5039002;28;20491;-76
2021/12/15 11:28:24;;;;;;;15.25;9.80;;;;;;;6.11;67.05;101312.88;5035414;28;20022;-77
2021/12/15 11:31:06;;;;;;;17.38;10.38;;;;;;;6.13;67.06;101312.78;5042196;28;20053;-79
2021/12/15 11:33:41;;;;;;;20.83;11.65;;;;;;;6.02;67.00;101292.00;5037449;28;20029;-78
2021/12/15 11:36:17;;;;;;;20.83;11.05;;;;;;;6.08;66.81;101317.50;5035100;28;20028;-78
2021/12/15 11:38:52;;;;;;;17.90;10.50;;;;;;;6.01;67.17;101291.13;5046715;28;20032;-78
2021/12/15 11:41:26;;;;;;;20.10;10.98;;;;;;;6.05;67.21;101313.19;5045243;28;20514;-76
2021/12/15 11:43:55;;;;;;;16.92;10.98;;;;;;;6.11;66.78;101312.88;5040644;28;20029;-76
2021/12/15 11:46:46;;;;;;;17.73;10.52;;;;;;;6.11;66.91;101307.53;5042217;28;20029;-77
2021/12/15 11:49:22;;;;;;;26.50;11.85;;;;;;;6.17;66.75;101311.69;5040605;28;20464;-75
2021/12/15 11:51:52;;;;;;;29.73;13.98;;;;;;;6.15;66.33;101314.41;5039756;28;20376;-75
2021/12/15 11:54:21;;;;;;;16.80;10.55;;;;;;;6.14;66.62;101320.72;5042670;28;20135;-76
2021/12/15 11:56:53;;;;;;;18.55;10.88;;;;;;;6.16;66.26;101320.63;5043976;28;20040;-76
2021/12/15 11:59:35;;;;;;;18.27;10.43;;;;;;;6.12;66.41;101309.22;5043799;28;20021;-76
2021/12/15 12:02:07;;;;;;;20.83;13.32;;;;;;;6.10;66.51;101311.13;5043204;28;20025;-75
2021/12/15 12:04:46;;;;;;;15.48;10.73;;;;;;;6.14;66.58;101311.84;5041498;28;20079;-76
2021/12/15 12:07:35;;;;;;;21.98;11.70;;;;;;;6.14;66.51;101302.03;5043239;28;20032;-75
2021/12/15 12:10:17;;;;;;;14.95;9.90;;;;;;;6.10;66.24;101305.78;5037242;28;20115;-75
2021/12/15 12:13:03;;;;;;;19.27;8.80;;;;;;;5.98;66.15;101301.09;5043959;28;20052;-77
2021/12/15 12:15:30;;;;;;;18.92;10.38;;;;;;;6.01;66.64;101311.59;5039954;28;20108;-75
2021/12/15 12:18:00;;;;;;;23.80;10.75;;;;;;;6.00;66.81;101304.53;5042446;28;20021;-76
2021/12/15 12:20:32;;;;;;;26.80;12.55;;;;;;;6.00;66.81;101307.19;5044148;28;20044;-76
2021/12/15 12:23:00;;;;;;;22.77;12.68;;;;;;;6.02;66.96;101314.19;5041859;28;20478;-77
2021/12/15 12:25:35;;;;;;;19.95;10.63;;;;;;;6.06;66.62;101324.72;5043618;28;20080;-76
2021/12/15 12:28:01;;;;;;;20.95;11.77;;;;;;;6.04;66.82;101311.44;5043776;28;20024;-75
2021/12/15 12:30:33;;;;;;;20.60;11.65;;;;;;;6.03;66.48;101315.06;5039660;28;20094;-75
2021/12/15 12:32:59;;;;;;;27.52;12.15;;;;;;;6.04;66.64;101322.13;5042919;28;20475;-75
2021/12/15 12:35:32;;;;;;;19.38;11.80;;;;;;;6.01;66.86;101309.81;5043574;28;20104;-76
2021/12/15 12:38:00;;;;;;;;;;;;;;;6.01;67.20;101314.28;5038525;28;20017;-76
2021/12/15 12:40:33;;;;;;;20.98;10.65;;;;;;;5.99;67.57;101317.00;5041109;28;19967;-75
2021/12/15 12:42:59;;;;;;;19.13;9.93;;;;;;;6.01;67.27;101306.28;5046408;28;20098;-75
2021/12/15 12:45:35;;;;;;;26.35;11.07;;;;;;;6.06;67.44;101314.03;5041693;28;20021;-75
2021/12/15 12:59:41;;;;;;;22.25;13.20;;;;;;;5.85;68.07;101314.19;5052191;28;20415;-76